createdAt,value
2018-02-21T00:01:38.064Z,36.03
2018-02-21T00:04:06.297Z,42.87
2018-02-21T00:06:33.796Z,44.73
2018-02-21T00:09:02.051Z,36.87
2018-02-21T00:11:29.561Z,39.50
2018-02-21T00:13:57.033Z,31.50
2018-02-21T00:16:24.541Z,44.27
2018-02-21T00:18:52.002Z,39.37
2018-02-21T00:21:20.329Z,42.30
2018-02-21T00:23:47.806Z,42.50
2018-02-21T00:26:15.300Z,36.20
2018-02-21T00:28:43.553Z,38.90
2018-02-21T00:31:11.069Z,33.10
2018-02-21T00:33:38.551Z,40.37
2018-02-21T00:36:06.060Z,40.77
2018-02-21T00:38:34.301Z,38.93
2018-02-21T00:41:01.787Z,42.63
2018-02-21T00:43:30.053Z,41.63
2018-02-21T00:45:58.344Z,37.20
2018-02-21T00:48:26.576Z,41.97
2018-02-21T00:50:54.079Z,43.03
2018-02-21T00:53:21.562Z,44.60
2018-02-21T00:55:49.055Z,37.13
2018-02-21T00:58:16.548Z,39.73
2018-02-21T01:00:44.815Z,35.93
2018-02-21T01:03:13.091Z,44.60
2018-02-21T01:05:41.359Z,41.13
2018-02-21T01:08:08.841Z,45.33
2018-02-21T01:10:36.341Z,41.73
2018-02-21T01:13:04.580Z,44.53
2018-02-21T01:15:32.069Z,44.87
2018-02-21T01:17:59.525Z,43.87
2018-02-21T01:20:27.002Z,38.67
2018-02-21T01:22:54.491Z,37.07
2018-02-21T01:25:22.730Z,44.10
2018-02-21T01:27:50.222Z,38.50
2018-02-21T01:30:18.475Z,41.97
2018-02-21T01:32:46.039Z,37.60
2018-02-21T01:35:13.523Z,42.77
2018-02-21T01:37:41.781Z,38.47
2018-02-21T01:40:09.238Z,42.13
2018-02-21T01:42:36.746Z,38.00
2018-02-21T01:45:04.207Z,36.60
2018-02-21T01:47:31.703Z,39.27
2018-02-21T01:49:59.190Z,33.10
2018-02-21T01:52:27.440Z,45.80
2018-02-21T01:54:54.919Z,35.13
2018-02-21T01:57:23.182Z,43.87
2018-02-21T01:59:50.652Z,36.67
2018-02-21T02:02:18.923Z,42.67
2018-02-21T02:04:47.989Z,40.40
2018-02-21T02:07:15.476Z,38.70
2018-02-21T02:09:43.710Z,42.60
2018-02-21T02:12:11.993Z,42.67
2018-02-21T02:14:39.468Z,45.57
2018-02-21T02:17:06.979Z,40.00
2018-02-21T02:19:34.480Z,41.67
2018-02-21T02:22:01.940Z,43.70
2018-02-21T02:24:29.446Z,38.03
2018-02-21T02:26:56.924Z,45.30
2018-02-21T02:29:24.421Z,40.53
2018-02-21T02:31:51.883Z,45.63
2018-02-21T02:34:20.157Z,44.53
2018-02-21T02:36:47.619Z,44.57
2018-02-21T02:39:26.781Z,47.43
2018-02-21T02:41:54.252Z,45.93
2018-02-21T02:44:21.760Z,42.17
2018-02-21T02:46:49.240Z,47.23
2018-02-21T02:49:17.505Z,40.07
2018-02-21T02:51:45.730Z,42.33
2018-02-21T02:54:13.229Z,39.23
2018-02-21T02:56:41.485Z,38.43
2018-02-21T02:59:08.994Z,36.70
2018-02-21T03:01:36.471Z,38.97
2018-02-21T03:04:03.965Z,41.07
2018-02-21T03:06:31.441Z,44.87
2018-02-21T03:08:59.707Z,42.57
2018-02-21T03:11:27.194Z,42.17
2018-02-21T03:13:54.682Z,36.00
2018-02-21T03:16:22.161Z,44.97
2018-02-21T03:18:49.647Z,40.73
2018-02-21T03:21:17.891Z,43.37
2018-02-21T03:23:45.397Z,46.43
2018-02-21T03:26:13.619Z,47.37
2018-02-21T03:28:41.128Z,44.07
2018-02-21T03:31:09.367Z,46.70
2018-02-21T03:33:36.878Z,47.33
2018-02-21T03:36:04.347Z,48.63
2018-02-21T03:38:31.850Z,42.80
2018-02-21T03:40:59.337Z,41.73
2018-02-21T03:43:26.840Z,47.90
2018-02-21T03:45:54.375Z,47.53
2018-02-21T03:48:21.868Z,50.13
2018-02-21T03:50:49.379Z,48.73
2018-02-21T03:53:16.886Z,51.57
2018-02-21T03:55:44.357Z,50.13
2018-02-21T03:58:11.853Z,46.63
2018-02-21T04:00:39.326Z,43.30
2018-02-21T04:03:06.879Z,48.77
2018-02-21T04:05:34.349Z,46.30
2018-02-21T04:08:01.820Z,43.47
2018-02-21T04:10:29.301Z,46.77
2018-02-21T04:12:56.836Z,41.30
2018-02-21T04:15:24.313Z,44.83
2018-02-21T04:17:52.053Z,42.23
2018-02-21T04:20:19.535Z,38.07
2018-02-21T04:22:47.038Z,42.60
2018-02-21T04:25:14.541Z,39.80
2018-02-21T04:27:42.066Z,35.43
2018-02-21T04:30:09.628Z,37.33
2018-02-21T04:32:37.124Z,37.03
2018-02-21T04:35:04.595Z,39.10
2018-02-21T04:37:32.101Z,39.73
2018-02-21T04:39:59.572Z,42.10
2018-02-21T04:42:27.064Z,39.33
2018-02-21T04:44:54.544Z,43.20
2018-02-21T04:47:22.848Z,41.23
2018-02-21T04:49:50.343Z,43.90
2018-02-21T04:52:17.817Z,37.63
2018-02-21T04:54:50.955Z,37.77
2018-02-21T04:57:37.120Z,32.80
2018-02-21T05:00:06.505Z,41.07
2018-02-21T05:02:34.006Z,40.50
2018-02-21T05:05:01.479Z,45.83
2018-02-21T05:10:02.894Z,50.60
2018-02-21T05:12:30.426Z,43.53
2018-02-21T05:14:59.295Z,43.23
2018-02-21T05:17:26.810Z,48.83
2018-02-21T05:19:55.053Z,50.33
2018-02-21T05:22:22.554Z,41.93
2018-02-21T05:24:50.813Z,40.57
2018-02-21T05:27:18.283Z,46.53
2018-02-21T05:29:46.564Z,40.20
2018-02-21T05:32:14.802Z,49.20
2018-02-21T05:34:42.311Z,46.07
2018-02-21T05:37:09.826Z,42.83
2018-02-21T05:39:37.316Z,43.80
2018-02-21T05:42:05.566Z,51.50
2018-02-21T05:44:33.063Z,45.60
2018-02-21T05:47:00.541Z,42.27
2018-02-21T05:49:28.065Z,39.40
2018-02-21T05:51:56.301Z,47.13
2018-02-21T05:54:23.846Z,45.80
2018-02-21T05:56:51.341Z,39.30
2018-02-21T05:59:19.583Z,50.63
2018-02-21T06:01:47.096Z,43.20
2018-02-21T06:04:14.566Z,46.47
2018-02-21T06:06:42.083Z,49.47
2018-02-21T06:09:09.569Z,57.70
2018-02-21T06:11:37.100Z,45.27
2018-02-21T06:14:04.567Z,43.87
2018-02-21T06:16:32.876Z,49.90
2018-02-21T06:19:00.350Z,61.00
2018-02-21T06:21:27.854Z,67.27
2018-02-21T06:23:56.091Z,66.50
2018-02-21T06:26:23.594Z,54.60
2018-02-21T06:28:51.858Z,56.30
2018-02-21T06:31:19.348Z,44.40
2018-02-21T06:33:46.841Z,53.17
2018-02-21T06:36:14.348Z,49.40
2018-02-21T06:38:42.613Z,42.27
2018-02-21T06:41:10.903Z,56.10
2018-02-21T06:43:39.137Z,57.97
2018-02-21T06:46:06.641Z,61.67
2018-02-21T06:48:34.952Z,50.27
2018-02-21T06:51:02.454Z,51.77
2018-02-21T06:53:29.934Z,51.80
2018-02-21T06:55:58.259Z,39.67
2018-02-21T06:58:25.769Z,43.20
2018-02-21T07:00:54.040Z,49.40
2018-02-21T07:03:22.278Z,47.63
2018-02-21T07:05:49.784Z,48.73
2018-02-21T07:08:17.256Z,51.60
2018-02-21T07:10:44.786Z,43.80
2018-02-21T07:13:13.045Z,52.83
2018-02-21T07:15:40.538Z,52.80
2018-02-21T07:18:08.012Z,44.73
2018-02-21T07:20:35.537Z,42.93
2018-02-21T07:23:03.020Z,48.57
2018-02-21T07:25:31.366Z,48.57
2018-02-21T07:27:59.665Z,45.63
2018-02-21T07:30:27.122Z,43.70
2018-02-21T07:32:54.619Z,54.47
2018-02-21T07:35:22.112Z,41.70
2018-02-21T07:37:49.626Z,49.10
2018-02-21T07:40:17.114Z,44.97
2018-02-21T07:42:44.595Z,49.30
2018-02-21T07:45:12.845Z,51.90
2018-02-21T07:47:40.403Z,49.27
2018-02-21T07:50:07.879Z,52.23
2018-02-21T07:52:36.150Z,49.03
2018-02-21T07:55:03.629Z,45.90
2018-02-21T07:57:31.901Z,46.90
2018-02-21T08:00:00.205Z,52.13
2018-02-21T08:02:27.708Z,44.47
2018-02-21T08:04:55.182Z,62.83
2018-02-21T08:07:23.499Z,55.67
2018-02-21T08:09:50.972Z,48.57
2018-02-21T08:12:18.449Z,49.00
2018-02-21T08:14:45.973Z,56.93
2018-02-21T08:17:13.438Z,44.37
2018-02-21T08:19:40.945Z,44.07
2018-02-21T08:22:08.418Z,45.77
2018-02-21T08:24:36.706Z,49.03
2018-02-21T08:27:04.181Z,49.10
2018-02-21T08:29:31.688Z,54.80
2018-02-21T08:31:59.150Z,58.83
2018-02-21T08:34:26.661Z,44.33
2018-02-21T08:36:54.129Z,42.77
2018-02-21T08:39:21.627Z,48.03
2018-02-21T08:41:49.870Z,51.37
2018-02-21T08:44:17.370Z,51.80
2018-02-21T08:46:45.605Z,53.43
2018-02-21T08:49:13.125Z,44.87
2018-02-21T08:51:40.604Z,44.40
2018-02-21T08:54:08.837Z,49.07
2018-02-21T08:56:37.074Z,46.10
2018-02-21T08:59:04.606Z,46.47
2018-02-21T09:01:32.092Z,45.97
2018-02-21T09:03:59.603Z,44.40
2018-02-21T09:06:27.063Z,45.00
2018-02-21T09:08:54.570Z,42.20
2018-02-21T09:11:22.061Z,44.30
2018-02-21T09:13:50.365Z,44.87
2018-02-21T09:16:18.337Z,41.73
2018-02-21T09:18:45.833Z,37.27
2018-02-21T09:21:13.331Z,47.50
2018-02-21T09:23:41.813Z,46.60
2018-02-21T09:26:10.052Z,44.23
2018-02-21T09:28:37.545Z,40.03
2018-02-21T09:31:05.110Z,42.63
2018-02-21T09:33:32.615Z,39.67
2018-02-21T09:36:00.892Z,37.83
2018-02-21T09:38:29.106Z,41.87
2018-02-21T09:40:56.624Z,41.33
2018-02-21T09:43:24.908Z,42.40
2018-02-21T09:45:52.408Z,41.53
2018-02-21T09:48:19.933Z,42.63
2018-02-21T09:50:47.420Z,42.83
2018-02-21T09:53:15.684Z,41.87
2018-02-21T09:55:43.948Z,46.40
2018-02-21T09:58:11.459Z,39.00
2018-02-21T10:00:38.971Z,35.83
2018-02-21T10:03:06.457Z,39.40
2018-02-21T10:05:33.954Z,41.57
2018-02-21T10:08:01.569Z,46.30
2018-02-21T10:10:29.891Z,41.47
2018-02-21T10:12:58.384Z,40.80
2018-02-21T10:15:25.879Z,40.60
2018-02-21T10:17:54.165Z,43.83
2018-02-21T10:20:22.441Z,42.73
2018-02-21T10:22:50.720Z,44.60
2018-02-21T10:25:18.992Z,37.27
2018-02-21T10:27:47.249Z,44.00
2018-02-21T10:30:14.742Z,44.27
2018-02-21T10:32:42.226Z,43.33
2018-02-21T10:35:09.743Z,39.83
2018-02-21T10:37:37.226Z,43.33
2018-02-21T10:40:04.741Z,41.07
2018-02-21T10:42:32.208Z,36.33
2018-02-21T10:45:00.709Z,39.77
2018-02-21T10:47:28.180Z,39.23
2018-02-21T10:49:55.666Z,40.20
2018-02-21T10:52:23.187Z,34.63
2018-02-21T10:54:50.685Z,37.73
2018-02-21T10:57:18.164Z,38.07
2018-02-21T10:59:45.664Z,34.50
2018-02-21T11:02:13.148Z,32.77
2018-02-21T11:04:40.644Z,37.00
2018-02-21T11:07:08.142Z,36.90
2018-02-21T11:09:35.666Z,35.40
2018-02-21T11:12:03.139Z,36.10
2018-02-21T11:14:30.641Z,38.67
2018-02-21T11:16:58.132Z,33.70
2018-02-21T11:19:25.652Z,33.43
2018-02-21T11:21:53.144Z,32.37
2018-02-21T11:24:20.665Z,32.97
2018-02-21T11:26:48.924Z,33.33
2018-02-21T11:29:16.445Z,38.17
2018-02-21T11:31:43.907Z,32.17
2018-02-21T11:34:12.179Z,30.93
2018-02-21T11:36:40.425Z,32.20
2018-02-21T11:39:07.920Z,28.83
2018-02-21T11:41:36.172Z,32.50
2018-02-21T11:44:05.080Z,31.40
2018-02-21T11:46:33.314Z,33.40
2018-02-21T11:49:00.815Z,33.00
2018-02-21T11:51:29.046Z,30.30
2018-02-21T11:53:57.324Z,30.63
2018-02-21T11:56:24.813Z,33.53
2018-02-21T11:58:53.710Z,30.17
2018-02-21T12:01:21.963Z,29.80
2018-02-21T12:03:49.542Z,29.90
2018-02-21T12:06:17.011Z,26.67
2018-02-21T12:08:45.292Z,27.23
2018-02-21T12:11:13.555Z,29.33
2018-02-21T12:13:41.832Z,30.47
2018-02-21T12:16:10.088Z,25.17
2018-02-21T12:18:37.578Z,31.03
2018-02-21T12:21:05.831Z,28.03
2018-02-21T12:23:33.337Z,29.53
2018-02-21T12:26:00.820Z,30.47
2018-02-21T12:28:29.105Z,29.80
2018-02-21T12:30:56.588Z,27.87
2018-02-21T12:33:24.110Z,26.03
2018-02-21T12:35:51.612Z,26.03
2018-02-21T12:38:19.122Z,25.77
2018-02-21T12:40:52.380Z,24.30
2018-02-21T12:43:20.642Z,22.77
2018-02-21T12:45:48.874Z,27.87
2018-02-21T12:48:16.525Z,25.35
2018-02-21T12:50:44.021Z,27.20
2018-02-21T12:53:11.534Z,27.42
2018-02-21T12:55:39.800Z,26.42
2018-02-21T12:58:07.271Z,25.37
2018-02-21T13:00:34.778Z,23.87
2018-02-21T13:03:03.010Z,27.02
2018-02-21T13:05:30.514Z,26.50
2018-02-21T13:07:58.764Z,24.48
2018-02-21T13:10:26.276Z,24.12
2018-02-21T13:12:53.761Z,24.35
2018-02-21T13:15:21.270Z,25.92
2018-02-21T13:17:50.431Z,25.55
2018-02-21T13:20:17.942Z,20.98
2018-02-21T13:22:45.438Z,24.23
2018-02-21T13:25:12.952Z,21.17
2018-02-21T13:27:41.195Z,23.00
2018-02-21T13:30:08.715Z,22.98
2018-02-21T13:32:36.196Z,26.67
2018-02-21T13:35:03.681Z,21.53
2018-02-21T13:37:31.965Z,23.10
2018-02-21T13:40:00.207Z,22.30
2018-02-21T13:42:27.739Z,23.30
2018-02-21T13:44:55.195Z,21.83
2018-02-21T13:47:22.692Z,18.70
2018-02-21T13:49:50.206Z,21.77
2018-02-21T13:52:17.739Z,18.53
2018-02-21T13:54:45.982Z,20.47
2018-02-21T13:57:13.515Z,19.10
2018-02-21T13:59:41.000Z,18.33
2018-02-21T14:02:08.556Z,17.03
2018-02-21T14:04:36.048Z,21.33
2018-02-21T14:07:04.303Z,19.90
2018-02-21T14:09:31.787Z,19.27
2018-02-21T14:12:00.063Z,19.93
2018-02-21T14:14:28.333Z,17.70
2018-02-21T14:16:56.894Z,17.40
2018-02-21T14:19:24.371Z,18.97
2018-02-21T14:21:52.616Z,19.37
2018-02-21T14:24:20.142Z,21.03
2018-02-21T14:26:47.616Z,19.53
2018-02-21T14:29:15.131Z,18.60
2018-02-21T14:31:42.716Z,17.53
2018-02-21T14:34:10.238Z,18.20
2018-02-21T14:36:38.547Z,21.60
2018-02-21T14:39:06.053Z,23.10
2018-02-21T14:41:33.575Z,21.37
2018-02-21T14:44:01.087Z,23.43
2018-02-21T14:46:28.584Z,25.37
2018-02-21T14:48:56.095Z,26.30
2018-02-21T14:51:23.597Z,25.10
2018-02-21T14:53:51.182Z,23.40
2018-02-21T14:56:18.682Z,24.37
2018-02-21T14:58:46.968Z,23.90
2018-02-21T15:01:15.241Z,28.67
2018-02-21T15:03:43.541Z,28.20
2018-02-21T15:06:11.018Z,33.43
2018-02-21T15:08:38.526Z,28.97
2018-02-21T15:11:06.830Z,23.60
2018-02-21T15:13:34.372Z,24.73
2018-02-21T15:16:02.607Z,22.27
2018-02-21T15:18:30.090Z,22.77
2018-02-21T15:20:57.604Z,24.90
2018-02-21T15:23:25.174Z,22.97
2018-02-21T15:25:52.604Z,24.40
2018-02-21T15:28:20.079Z,23.80
2018-02-21T15:30:47.591Z,23.93
2018-02-21T15:33:15.836Z,24.10
2018-02-21T15:35:43.392Z,22.90
2018-02-21T15:38:10.868Z,21.90
2018-02-21T15:40:38.402Z,25.90
2018-02-21T15:43:05.876Z,19.97
2018-02-21T15:45:33.409Z,25.80
2018-02-21T15:48:00.875Z,20.73
2018-02-21T15:50:28.429Z,24.33
2018-02-21T15:52:55.913Z,23.10
2018-02-21T15:55:23.393Z,23.00
2018-02-21T15:57:51.675Z,24.63
2018-02-21T16:00:19.175Z,24.97
2018-02-21T16:02:46.699Z,20.97
2018-02-21T16:05:14.186Z,22.80
2018-02-21T16:07:41.706Z,20.97
2018-02-21T16:10:09.965Z,25.87
2018-02-21T16:12:37.463Z,29.17
2018-02-21T16:15:04.932Z,31.30
2018-02-21T16:17:32.436Z,23.80
2018-02-21T16:20:00.682Z,22.60
2018-02-21T16:22:28.203Z,21.37
2018-02-21T16:24:55.689Z,21.27
2018-02-21T16:27:23.229Z,22.60
2018-02-21T16:29:50.710Z,20.17
2018-02-21T16:32:18.220Z,22.57
2018-02-21T16:34:46.473Z,19.70
2018-02-21T16:37:14.743Z,19.13
2018-02-21T16:39:42.236Z,21.27
2018-02-21T16:42:10.552Z,22.93
2018-02-21T16:44:38.017Z,20.00
2018-02-21T16:47:05.499Z,17.13
2018-02-21T16:49:32.965Z,19.47
2018-02-21T16:52:01.249Z,21.70
2018-02-21T16:54:29.500Z,18.53
2018-02-21T16:56:57.015Z,18.83
2018-02-21T16:59:24.518Z,16.77
2018-02-21T17:01:52.023Z,16.90
2018-02-21T17:04:20.368Z,22.87
2018-02-21T17:06:48.999Z,19.53
2018-02-21T17:09:16.506Z,20.37
2018-02-21T17:11:44.008Z,20.87
2018-02-21T17:14:11.500Z,22.23
2018-02-21T17:16:39.010Z,22.43
2018-02-21T17:19:06.548Z,20.97
2018-02-21T17:21:35.724Z,22.80
2018-02-21T17:24:04.030Z,20.87
2018-02-21T17:26:32.274Z,29.83
2018-02-21T17:28:59.827Z,20.90
2018-02-21T17:31:27.295Z,18.03
2018-02-21T17:33:54.832Z,22.93
2018-02-21T17:36:22.296Z,18.53
2018-02-21T17:38:49.798Z,24.03
2018-02-21T17:41:23.903Z,26.77
2018-02-21T17:43:52.172Z,22.60
2018-02-21T17:46:19.678Z,23.93
2018-02-21T17:48:47.914Z,25.57
2018-02-21T17:51:16.203Z,40.93
2018-02-21T17:53:43.736Z,24.37
2018-02-21T17:56:11.209Z,25.20
2018-02-21T17:58:39.507Z,22.37
2018-02-21T18:01:07.025Z,25.77
2018-02-21T18:03:34.538Z,21.17
2018-02-21T18:06:02.040Z,27.33
2018-02-21T18:08:29.584Z,27.03
2018-02-21T18:10:57.056Z,24.23
2018-02-21T18:13:24.571Z,33.50
2018-02-21T18:15:52.060Z,34.83
2018-02-21T18:18:19.572Z,30.77
2018-02-21T18:20:47.042Z,35.20
2018-02-21T18:23:14.556Z,29.87
2018-02-21T18:25:42.113Z,71.53
2018-02-21T18:28:09.611Z,30.47
2018-02-21T18:30:37.105Z,28.67
2018-02-21T18:33:04.591Z,30.30
2018-02-21T18:35:32.834Z,31.37
2018-02-21T18:38:00.318Z,31.83
2018-02-21T18:40:27.801Z,36.87
2018-02-21T18:42:56.045Z,28.00
2018-02-21T18:45:23.556Z,30.67
2018-02-21T18:47:51.074Z,39.03
2018-02-21T18:50:19.327Z,34.17
2018-02-21T18:52:46.828Z,32.60
2018-02-21T18:55:15.071Z,42.40
2018-02-21T18:57:42.589Z,36.30
2018-02-21T19:00:10.069Z,40.23
2018-02-21T19:02:37.602Z,32.40
2018-02-21T19:05:05.105Z,39.40
2018-02-21T19:07:32.591Z,31.73
2018-02-21T19:10:00.865Z,28.83
2018-02-21T19:12:30.093Z,29.70
2018-02-21T19:14:57.593Z,26.27
2018-02-21T19:17:25.072Z,27.30
2018-02-21T19:19:53.372Z,29.23
2018-02-21T19:22:20.881Z,29.07
2018-02-21T19:24:48.384Z,25.37
2018-02-21T19:27:15.853Z,26.43
2018-02-21T19:29:43.351Z,22.97
2018-02-21T19:32:10.838Z,32.37
2018-02-21T19:34:39.130Z,46.07
2018-02-21T19:37:06.603Z,34.53
2018-02-21T19:39:34.200Z,27.10
2018-02-21T19:42:01.687Z,26.23
2018-02-21T19:44:30.000Z,29.23
2018-02-21T19:46:57.505Z,27.80
2018-02-21T19:49:24.997Z,29.90
2018-02-21T19:51:52.522Z,28.47
2018-02-21T19:54:20.000Z,30.43
2018-02-21T19:56:48.258Z,30.77
2018-02-21T19:59:15.745Z,32.03
2018-02-21T20:01:43.247Z,27.90
2018-02-21T20:04:10.728Z,25.13
2018-02-21T20:06:38.246Z,26.60
2018-02-21T20:09:05.722Z,26.00
2018-02-21T20:11:33.994Z,32.57
2018-02-21T20:14:01.471Z,30.03
2018-02-21T20:16:28.961Z,26.33
2018-02-21T20:18:57.209Z,33.03
2018-02-21T20:21:24.710Z,35.80
2018-02-21T20:23:52.195Z,33.43
2018-02-21T20:26:19.813Z,38.60
2018-02-21T20:28:48.120Z,36.37
2018-02-21T20:31:15.606Z,22.87
2018-02-21T20:33:43.117Z,30.07
2018-02-21T20:36:10.858Z,35.90
2018-02-21T20:38:38.343Z,26.43
2018-02-21T20:41:05.829Z,24.37
2018-02-21T20:43:33.348Z,29.80
2018-02-21T20:46:00.837Z,24.83
2018-02-21T20:48:28.346Z,25.07
2018-02-21T20:50:55.815Z,23.40
2018-02-21T20:53:24.108Z,25.87
2018-02-21T20:55:51.589Z,26.67
2018-02-21T20:58:19.091Z,27.03
2018-02-21T21:00:46.594Z,30.17
2018-02-21T21:03:14.142Z,27.27
2018-02-21T21:05:42.363Z,21.40
2018-02-21T21:08:09.892Z,31.20
2018-02-21T21:10:37.453Z,26.03
2018-02-21T21:13:04.952Z,28.50
2018-02-21T21:15:32.446Z,27.13
2018-02-21T21:18:00.702Z,26.90
2018-02-21T21:20:28.962Z,24.27
2018-02-21T21:22:56.498Z,27.57
2018-02-21T21:25:23.992Z,26.30
2018-02-21T21:27:51.493Z,26.03
2018-02-21T21:30:18.976Z,26.53
2018-02-21T21:32:46.493Z,28.80
2018-02-21T21:35:14.738Z,25.50
2018-02-21T21:37:43.016Z,25.03
2018-02-21T21:40:10.628Z,27.77
2018-02-21T21:42:38.134Z,26.53
2018-02-21T21:45:06.454Z,24.70
2018-02-21T21:47:33.946Z,21.03
2018-02-21T21:50:01.476Z,27.60
2018-02-21T21:52:29.701Z,26.80
2018-02-21T21:54:58.124Z,27.73
2018-02-21T21:57:25.625Z,27.17
2018-02-21T21:59:53.110Z,24.77
2018-02-21T22:02:21.349Z,26.17
2018-02-21T22:04:49.444Z,26.83
2018-02-21T22:07:17.744Z,25.77
2018-02-21T22:09:45.993Z,24.27
2018-02-21T22:12:14.256Z,26.90
2018-02-21T22:14:41.800Z,27.30
2018-02-21T22:17:09.285Z,29.87
2018-02-21T22:19:36.786Z,25.90
2018-02-21T22:22:04.254Z,27.03
2018-02-21T22:24:31.747Z,29.73
2018-02-21T22:26:59.987Z,29.73
2018-02-21T22:29:27.487Z,29.37
2018-02-21T22:31:54.942Z,26.57
2018-02-21T22:34:22.469Z,32.13
2018-02-21T22:36:49.949Z,31.43
2018-02-21T22:39:17.453Z,32.87
2018-02-21T22:41:44.941Z,32.63
2018-02-21T22:44:12.437Z,39.00
2018-02-21T22:46:39.913Z,33.47
2018-02-21T22:49:08.202Z,33.60
2018-02-21T22:51:36.468Z,29.90
2018-02-21T22:54:04.737Z,32.23
2018-02-21T22:56:33.061Z,30.93
2018-02-21T22:59:00.555Z,34.47
2018-02-21T23:01:28.025Z,35.07
2018-02-21T23:03:55.531Z,33.07
2018-02-21T23:06:23.002Z,36.07
2018-02-21T23:08:50.498Z,34.63
2018-02-21T23:11:18.815Z,38.67
2018-02-21T23:13:46.331Z,37.87
2018-02-21T23:16:13.808Z,41.47
2018-02-21T23:18:42.072Z,36.60
2018-02-21T23:21:10.333Z,39.00
2018-02-21T23:23:37.810Z,40.93
2018-02-21T23:26:06.880Z,38.63
2018-02-21T23:28:34.354Z,39.00
2018-02-21T23:31:01.882Z,38.73
2018-02-21T23:33:29.355Z,37.77
2018-02-21T23:35:56.886Z,39.47
2018-02-21T23:38:25.156Z,36.33
2018-02-21T23:40:52.655Z,40.07
2018-02-21T23:43:20.179Z,37.93
2018-02-21T23:45:47.710Z,42.47
2018-02-21T23:48:15.242Z,38.20
2018-02-21T23:50:43.555Z,42.13
2018-02-21T23:53:11.122Z,41.93
2018-02-21T23:55:38.614Z,37.50
2018-02-21T23:58:06.115Z,37.70
